createdAt,value
2022-09-04T00:02:33.906Z,75211.84
2022-09-04T00:05:07.735Z,75205.72
2022-09-04T00:07:40.928Z,75209.81
2022-09-04T00:10:16.310Z,75211.84
2022-09-04T00:12:50.173Z,75215.91
2022-09-04T00:15:22.350Z,75217.97
2022-09-04T00:17:57.690Z,75217.97
2022-09-04T00:20:35.495Z,75217.97
2022-09-04T00:23:11.050Z,75213.88
2022-09-04T00:25:45.654Z,75213.88
2022-09-04T00:28:21.136Z,75226.13
2022-09-04T00:30:59.243Z,75226.13
2022-09-04T00:33:33.718Z,75230.19
2022-09-04T00:36:04.843Z,75230.19
2022-09-04T00:38:42.098Z,75230.19
2022-09-04T00:41:22.634Z,75230.19
2022-09-04T00:44:18.234Z,75226.13
2022-09-04T00:47:23.834Z,75234.28
2022-09-04T00:50:24.805Z,75230.19
2022-09-04T00:53:06.306Z,75238.34
2022-09-04T00:55:52.643Z,75238.34
2022-09-04T00:58:35.643Z,75238.34
2022-09-04T01:01:04.436Z,75240.38
2022-09-04T01:03:59.327Z,75244.47
2022-09-04T01:06:35.527Z,75234.28
2022-09-04T01:09:24.840Z,75234.28
2022-09-04T01:12:02.655Z,75236.31
2022-09-04T01:14:41.444Z,75240.38
2022-09-04T01:17:18.206Z,75248.53
2022-09-04T01:20:00.276Z,75250.56
2022-09-04T01:22:51.168Z,75250.56
2022-09-04T01:25:34.011Z,75252.63
2022-09-04T01:28:09.084Z,75262.81
2022-09-04T01:30:47.096Z,75262.81
2022-09-04T01:33:20.679Z,75264.84
2022-09-04T01:35:57.228Z,75273.00
2022-09-04T01:38:34.295Z,75270.97
2022-09-04T01:41:08.626Z,75279.09
2022-09-04T01:43:37.837Z,75283.19
2022-09-04T01:46:20.090Z,75301.53
2022-09-04T01:48:54.636Z,75295.41
2022-09-04T01:51:34.097Z,75299.50
2022-09-04T01:54:13.708Z,75299.50
2022-09-04T01:56:46.273Z,75303.56
2022-09-04T01:59:26.832Z,75311.72
2022-09-04T02:01:59.506Z,75319.88
2022-09-04T02:04:35.702Z,75315.81
2022-09-04T02:07:15.808Z,75311.72
2022-09-04T02:09:55.381Z,75315.81
2022-09-04T02:12:34.457Z,75311.72
2022-09-04T02:15:10.469Z,75315.81
2022-09-04T02:17:45.867Z,75315.81
2022-09-04T02:20:24.618Z,75319.88
2022-09-04T02:23:05.168Z,75330.06
2022-09-04T02:25:39.448Z,75338.22
2022-09-04T02:28:21.562Z,75336.19
2022-09-04T02:30:58.553Z,75340.25
2022-09-04T02:33:37.144Z,75344.34
2022-09-04T02:36:11.166Z,75358.59
2022-09-04T02:38:48.578Z,75360.66
2022-09-04T02:41:24.120Z,75366.75
2022-09-04T02:44:16.982Z,75370.84
2022-09-04T02:46:57.854Z,75364.72
2022-09-04T02:49:34.817Z,75368.78
2022-09-04T02:52:16.198Z,75370.84
2022-09-04T02:54:57.738Z,75372.88
2022-09-04T02:57:33.887Z,75381.03
2022-09-04T03:00:07.689Z,75385.09
2022-09-04T03:02:42.682Z,75401.41
2022-09-04T03:05:20.315Z,75409.56
2022-09-04T03:07:57.669Z,75413.66
2022-09-04T03:10:32.272Z,75427.91
2022-09-04T03:13:07.020Z,75438.09
2022-09-04T03:15:43.143Z,75444.22
2022-09-04T03:18:20.749Z,75444.22
2022-09-04T03:20:55.908Z,75450.34
2022-09-04T03:23:33.477Z,75458.50
2022-09-04T03:26:13.854Z,75466.63
2022-09-04T03:28:50.443Z,75474.78
2022-09-04T03:31:28.030Z,75480.91
2022-09-04T03:34:08.089Z,75482.94
2022-09-04T03:36:47.081Z,75487.03
2022-09-04T03:39:22.453Z,75491.09
2022-09-04T03:42:05.127Z,75487.03
2022-09-04T03:44:44.891Z,75497.22
2022-09-04T03:47:20.754Z,75507.41
2022-09-04T03:49:59.242Z,75511.47
2022-09-04T03:52:35.718Z,75517.59
2022-09-04T03:55:25.080Z,75515.56
2022-09-04T03:58:08.675Z,75515.56
2022-09-04T04:00:47.459Z,75521.69
2022-09-04T04:03:37.955Z,75519.63
2022-09-04T04:06:24.363Z,75521.69
2022-09-04T04:09:05.223Z,75531.88
2022-09-04T04:11:47.226Z,75529.84
2022-09-04T04:14:38.340Z,75527.78
2022-09-04T04:17:23.626Z,75540.03
2022-09-04T04:20:05.834Z,75537.97
2022-09-04T04:22:56.060Z,75540.03
2022-09-04T04:25:42.202Z,75535.94
2022-09-04T04:28:24.944Z,75540.03
2022-09-04T04:30:54.608Z,75533.91
2022-09-04T04:33:34.733Z,75533.91
2022-09-04T04:36:13.174Z,75535.94
2022-09-04T04:39:13.552Z,75537.97
2022-09-04T04:42:06.125Z,75540.03
2022-09-04T04:45:09.450Z,75535.94
2022-09-04T04:48:12.484Z,75531.88
2022-09-04T04:50:49.587Z,75531.88
2022-09-04T04:53:27.020Z,75533.91
2022-09-04T04:56:00.871Z,75531.88
2022-09-04T04:58:51.166Z,75517.59
2022-09-04T05:01:32.483Z,75521.69
2022-09-04T05:04:11.616Z,75525.75
2022-09-04T05:06:48.857Z,75527.78
2022-09-04T05:09:25.803Z,75527.78
2022-09-04T05:12:07.455Z,75540.03
2022-09-04T05:14:43.532Z,75535.94
2022-09-04T05:17:23.597Z,75537.97
2022-09-04T05:20:00.039Z,75544.09
2022-09-04T05:22:36.457Z,75533.91
2022-09-04T05:25:13.523Z,75531.88
2022-09-04T05:27:58.636Z,75521.69
2022-09-04T05:30:41.213Z,75521.69
2022-09-04T05:33:18.958Z,75525.75
2022-09-04T05:35:53.034Z,75521.69
2022-09-04T05:38:27.333Z,75523.72
2022-09-04T05:41:06.410Z,75527.78
2022-09-04T05:43:57.553Z,75515.56
2022-09-04T05:46:42.761Z,75509.44
2022-09-04T05:49:22.380Z,75509.44
2022-09-04T05:52:11.937Z,75499.25
2022-09-04T05:55:00.384Z,75507.41
2022-09-04T05:57:46.161Z,75513.53
2022-09-04T06:00:17.136Z,75513.53
2022-09-04T06:03:11.832Z,75509.44
2022-09-04T06:05:47.541Z,75507.41
2022-09-04T06:08:32.590Z,75503.34
2022-09-04T06:11:24.702Z,75499.25
2022-09-04T06:14:13.987Z,75497.22
2022-09-04T06:16:56.663Z,75487.03
2022-09-04T06:19:43.631Z,75478.88
2022-09-04T06:22:35.535Z,75458.50
2022-09-04T06:25:17.694Z,75462.56
2022-09-04T06:28:04.801Z,75446.25
2022-09-04T06:30:39.496Z,75442.19
2022-09-04T06:33:53.574Z,75436.06
2022-09-04T06:36:35.622Z,75425.88
2022-09-04T06:39:17.268Z,75423.84
2022-09-04T06:41:58.200Z,75417.72
2022-09-04T06:44:41.159Z,75417.72
2022-09-04T06:47:23.200Z,75409.56
2022-09-04T06:50:16.524Z,75413.66
2022-09-04T06:52:55.869Z,75432.00
2022-09-04T06:55:33.437Z,75419.75
2022-09-04T06:58:16.977Z,75419.75
2022-09-04T07:00:54.164Z,75405.50
2022-09-04T07:03:43.474Z,75397.34
2022-09-04T07:06:19.461Z,75391.22
2022-09-04T07:09:04.466Z,75389.19
2022-09-04T07:11:51.023Z,75376.94
2022-09-04T07:14:46.251Z,75376.94
2022-09-04T07:17:21.807Z,75356.56
2022-09-04T07:20:05.962Z,75328.03
2022-09-04T07:22:54.918Z,75315.81
2022-09-04T07:25:28.285Z,75303.56
2022-09-04T07:28:13.115Z,75270.97
2022-09-04T07:30:45.390Z,75317.84
2022-09-04T07:33:20.476Z,75332.09
2022-09-04T07:35:59.176Z,75338.22
2022-09-04T07:38:36.996Z,75336.19
2022-09-04T07:41:11.392Z,75336.19
2022-09-04T07:43:54.657Z,75328.03
2022-09-04T07:46:30.295Z,75323.94
2022-09-04T07:49:10.153Z,75305.59
2022-09-04T07:51:44.193Z,75287.25
2022-09-04T07:54:27.534Z,75289.31
2022-09-04T07:57:11.402Z,75315.81
2022-09-04T07:59:54.967Z,75323.94
2022-09-04T08:02:39.179Z,75319.88
2022-09-04T08:05:23.075Z,75334.16
2022-09-04T08:08:27.084Z,75336.19
2022-09-04T08:11:09.855Z,75340.25
2022-09-04T08:14:03.789Z,75344.34
2022-09-04T08:16:36.292Z,75340.25
2022-09-04T08:19:24.230Z,75323.94
2022-09-04T08:21:54.891Z,75311.72
2022-09-04T08:24:54.878Z,75307.66
2022-09-04T08:27:47.683Z,75293.38
2022-09-04T08:30:20.092Z,75283.19
2022-09-04T08:33:28.289Z,75277.06
2022-09-04T08:36:03.159Z,75266.88
2022-09-04T08:38:56.624Z,75262.81
2022-09-04T08:42:08.752Z,75264.84
2022-09-04T08:45:15.806Z,75266.88
2022-09-04T08:48:19.241Z,75260.75
2022-09-04T08:51:20.198Z,75258.72
2022-09-04T08:54:25.465Z,75268.91
2022-09-04T08:57:14.452Z,75268.91
2022-09-04T09:00:07.074Z,75262.81
2022-09-04T09:03:17.293Z,75250.56
2022-09-04T09:06:24.372Z,75250.56
2022-09-04T09:09:28.871Z,75254.66
2022-09-04T09:12:41.209Z,75250.56
2022-09-04T09:15:52.825Z,75246.50
2022-09-04T09:18:37.145Z,75260.75
2022-09-04T09:21:11.228Z,75246.50
2022-09-04T09:23:45.987Z,75254.66
2022-09-04T09:26:26.542Z,75266.88
2022-09-04T09:29:29.950Z,75266.88
2022-09-04T09:32:31.118Z,75266.88
2022-09-04T09:35:55.640Z,75262.81
2022-09-04T09:38:51.650Z,75262.81
2022-09-04T09:41:59.561Z,75248.53
2022-09-04T09:44:52.982Z,75226.13
2022-09-04T09:48:02.426Z,75213.88
2022-09-04T09:50:49.920Z,75213.88
2022-09-04T09:53:54.744Z,75222.03
2022-09-04T09:56:56.092Z,75222.03
2022-09-04T09:59:53.668Z,75234.28
2022-09-04T10:02:54.376Z,75228.16
2022-09-04T10:06:00.570Z,75205.72
2022-09-04T10:09:17.296Z,75209.81
2022-09-04T10:12:26.193Z,75181.28
2022-09-04T10:15:22.183Z,75156.81
2022-09-04T10:18:23.167Z,75116.06
2022-09-04T10:21:20.818Z,75083.44
2022-09-04T10:24:12.777Z,75081.41
2022-09-04T10:27:12.509Z,75058.97
2022-09-04T10:30:06.623Z,75010.06
2022-09-04T10:33:13.056Z,75018.22
2022-09-04T10:36:01.236Z,75010.06
2022-09-04T10:39:02.426Z,74959.13
2022-09-04T10:42:05.712Z,74928.53
2022-09-04T10:45:01.849Z,74944.84
2022-09-04T10:47:46.369Z,74942.81
2022-09-04T10:50:28.552Z,74928.53
2022-09-04T10:53:21.549Z,74932.63
2022-09-04T10:56:03.256Z,74940.78
2022-09-04T10:58:45.054Z,74928.53
2022-09-04T11:01:47.744Z,74906.13
2022-09-04T11:05:07.047Z,74891.84
2022-09-04T11:08:09.310Z,74847.00
2022-09-04T11:10:55.683Z,74842.94
2022-09-04T11:14:08.818Z,74822.56
2022-09-04T11:17:00.255Z,74822.56
2022-09-04T11:20:06.986Z,74783.84
2022-09-04T11:23:13.526Z,74749.19
2022-09-04T11:26:17.854Z,74732.88
2022-09-04T11:29:27.169Z,74694.16
2022-09-04T11:32:28.053Z,74704.34
2022-09-04T11:35:32.219Z,74712.50
2022-09-04T11:38:05.128Z,74694.16
2022-09-04T11:41:18.661Z,74659.53
2022-09-04T11:44:02.118Z,74667.69
2022-09-04T11:47:07.500Z,74702.31
2022-09-04T11:50:00.477Z,74683.97
2022-09-04T11:52:48.884Z,74675.81
2022-09-04T11:55:38.697Z,74618.75
2022-09-04T11:58:23.532Z,74578.00
2022-09-04T12:01:04.025Z,74569.84
2022-09-04T12:04:04.419Z,74547.44
2022-09-04T12:06:51.782Z,74573.94
2022-09-04T12:09:59.213Z,74561.69
2022-09-04T12:12:57.996Z,74578.00
2022-09-04T12:15:55.275Z,74541.31
2022-09-04T12:18:44.687Z,74561.69
2022-09-04T12:21:41.050Z,74610.63
2022-09-04T12:24:38.304Z,74594.31
2022-09-04T12:27:43.041Z,74557.63
2022-09-04T12:30:15.834Z,74533.16
2022-09-04T12:33:08.516Z,74476.13
2022-09-04T12:36:03.399Z,74461.84
2022-09-04T12:39:04.047Z,74500.56
2022-09-04T12:41:40.732Z,74508.72
2022-09-04T12:44:19.955Z,74488.34
2022-09-04T12:47:07.133Z,74488.34
2022-09-04T12:49:58.224Z,74514.84
2022-09-04T12:52:43.212Z,74533.16
2022-09-04T12:55:19.317Z,74529.09
2022-09-04T12:58:00.982Z,74496.50
2022-09-04T13:00:48.512Z,74455.72
2022-09-04T13:03:27.401Z,74423.13
2022-09-04T13:06:08.480Z,74388.50
2022-09-04T13:08:50.520Z,74388.50
2022-09-04T13:11:40.148Z,74372.19
2022-09-04T13:14:34.831Z,74364.03
2022-09-04T13:17:10.316Z,74419.06
2022-09-04T13:19:47.689Z,74465.91
2022-09-04T13:22:28.695Z,74533.16
2022-09-04T13:25:08.607Z,74561.69
2022-09-04T13:27:50.387Z,74557.63
2022-09-04T13:30:25.541Z,74520.94
2022-09-04T13:33:22.615Z,74565.78
2022-09-04T13:36:05.128Z,74602.47
2022-09-04T13:39:10.648Z,74620.81
2022-09-04T13:41:53.841Z,74635.06
2022-09-04T13:44:57.746Z,74661.56
2022-09-04T13:47:32.832Z,74675.81
2022-09-04T13:50:10.137Z,74688.06
2022-09-04T13:52:45.711Z,74683.97
2022-09-04T13:55:20.765Z,74696.19
2022-09-04T13:57:57.384Z,74698.25
2022-09-04T14:00:26.887Z,74698.25
2022-09-04T14:03:03.298Z,74706.41
2022-09-04T14:05:34.759Z,74706.41
2022-09-04T14:08:06.677Z,74708.44
2022-09-04T14:10:56.714Z,74712.50
2022-09-04T14:13:41.724Z,74708.44
2022-09-04T14:16:14.035Z,74696.19
2022-09-04T14:18:55.701Z,74692.13
2022-09-04T14:21:35.269Z,74698.25
2022-09-04T14:24:09.429Z,74696.19
2022-09-04T14:26:50.316Z,74694.16
2022-09-04T14:29:31.236Z,74688.06
2022-09-04T14:32:10.475Z,74696.19
2022-09-04T14:34:58.963Z,74700.28
2022-09-04T14:38:06.766Z,74704.34
2022-09-04T14:40:39.607Z,74712.50
2022-09-04T14:43:22.295Z,74716.59
2022-09-04T14:46:06.844Z,74720.66
2022-09-04T14:48:40.511Z,74716.59
2022-09-04T14:51:35.168Z,74728.81
2022-09-04T14:54:08.479Z,74734.94
2022-09-04T14:56:43.767Z,74732.88
2022-09-04T14:59:21.871Z,74724.75
2022-09-04T15:02:24.228Z,74726.78
2022-09-04T15:05:00.210Z,74736.97
2022-09-04T15:07:50.623Z,74757.34
2022-09-04T15:10:24.523Z,74781.81
2022-09-04T15:13:00.651Z,74794.03
2022-09-04T15:15:33.909Z,74806.25
2022-09-04T15:18:10.822Z,74802.19
2022-09-04T15:20:46.659Z,74810.34
2022-09-04T15:23:25.791Z,74818.47
2022-09-04T15:26:03.616Z,74818.47
2022-09-04T15:28:39.398Z,74818.47
2022-09-04T15:31:16.187Z,74816.44
2022-09-04T15:33:54.439Z,74828.69
2022-09-04T15:36:25.356Z,74834.78
2022-09-04T15:38:57.761Z,74840.91
2022-09-04T15:41:37.349Z,74844.97
2022-09-04T15:44:16.020Z,74849.06
2022-09-04T15:46:49.498Z,74851.09
2022-09-04T15:49:26.557Z,74861.28
2022-09-04T15:52:04.206Z,74859.25
2022-09-04T15:54:57.978Z,74869.44
2022-09-04T15:57:36.071Z,74867.41
2022-09-04T16:00:10.486Z,74875.56
2022-09-04T16:02:50.379Z,74887.78
2022-09-04T16:05:24.539Z,74887.78
2022-09-04T16:08:03.701Z,74889.81
2022-09-04T16:10:48.515Z,74904.09
2022-09-04T16:13:58.303Z,74916.31
2022-09-04T16:16:33.558Z,74920.38
2022-09-04T16:19:08.893Z,74920.38
2022-09-04T16:21:48.043Z,74920.38
2022-09-04T16:24:19.176Z,74932.63
2022-09-04T16:26:51.439Z,74940.78
2022-09-04T16:29:32.686Z,74946.88
2022-09-04T16:32:00.644Z,74953.00
2022-09-04T16:34:34.079Z,74961.16
2022-09-04T16:37:10.966Z,74957.06
2022-09-04T16:39:50.094Z,74965.22
2022-09-04T16:42:25.687Z,74973.38
2022-09-04T16:44:59.289Z,74975.41
2022-09-04T16:47:36.421Z,74983.56
2022-09-04T16:50:13.527Z,74985.59
2022-09-04T16:52:49.918Z,74987.66
2022-09-04T16:55:37.009Z,74987.66
2022-09-04T16:58:35.038Z,74981.53
2022-09-04T17:01:14.696Z,74985.59
2022-09-04T17:03:54.897Z,74981.53
2022-09-04T17:06:56.345Z,74989.69
2022-09-04T17:09:29.799Z,74997.84
2022-09-04T17:12:06.280Z,74995.81
2022-09-04T17:14:40.415Z,74995.81
2022-09-04T17:17:30.881Z,74997.84
2022-09-04T17:20:09.637Z,75001.91
2022-09-04T17:29:02.430Z,75006.00
2022-09-04T17:29:12.103Z,75016.19
2022-09-04T17:29:16.404Z,75018.22
2022-09-04T17:31:38.470Z,75026.38
2022-09-04T17:40:44.531Z,75030.44
2022-09-04T17:40:53.466Z,75054.91
2022-09-04T17:40:54.444Z,75065.09
2022-09-04T17:43:22.868Z,75071.22
2022-09-04T17:46:02.380Z,75085.47
2022-09-04T17:48:34.096Z,75083.44
2022-09-04T17:51:07.262Z,75085.47
2022-09-04T17:53:39.578Z,75097.72
2022-09-04T17:56:14.671Z,75103.81
2022-09-04T17:58:47.728Z,75114.00
2022-09-04T18:01:23.309Z,75130.31
2022-09-04T18:04:20.356Z,75132.34
2022-09-04T18:06:57.896Z,75132.34
2022-09-04T18:09:34.145Z,75140.50
2022-09-04T18:12:11.608Z,75150.69
2022-09-04T18:14:50.134Z,75160.88
2022-09-04T18:17:44.841Z,75171.09
2022-09-04T18:20:18.618Z,75187.38
2022-09-04T18:23:15.455Z,75199.63
2022-09-04T18:25:47.150Z,75215.91
2022-09-04T18:28:21.004Z,75220.00
2022-09-04T18:37:07.652Z,75222.03
2022-09-04T18:37:20.594Z,75226.13
2022-09-04T18:37:26.041Z,75246.50
2022-09-04T18:39:50.340Z,75266.88
2022-09-04T18:48:14.176Z,75277.06
2022-09-04T18:50:33.208Z,75299.50
2022-09-04T18:50:45.044Z,75279.09
2022-09-04T18:51:21.821Z,75319.88
2022-09-04T18:53:55.975Z,75336.19
2022-09-04T18:56:29.355Z,75340.25
2022-09-04T18:59:12.565Z,75348.41
2022-09-04T19:01:44.762Z,75356.56
2022-09-04T19:04:35.995Z,75362.69
2022-09-04T19:07:09.121Z,75374.91
2022-09-04T19:09:56.217Z,75376.94
2022-09-04T19:12:35.669Z,75389.19
2022-09-04T19:15:36.660Z,75387.13
2022-09-04T19:18:14.959Z,75389.19
2022-09-04T19:20:48.239Z,75387.13
2022-09-04T19:23:26.365Z,75387.13
2022-09-04T19:26:01.754Z,75385.09
2022-09-04T19:28:52.380Z,75401.41
2022-09-04T19:31:29.962Z,75403.44
2022-09-04T19:34:01.019Z,75415.69
2022-09-04T19:36:36.639Z,75419.75
2022-09-04T19:46:00.253Z,75411.59
2022-09-04T19:46:03.140Z,75417.72
2022-09-04T19:46:19.914Z,75413.66
2022-09-04T19:48:06.063Z,75425.88
2022-09-04T19:53:31.421Z,75423.84
2022-09-04T19:53:42.736Z,75440.13
2022-09-04T19:56:26.566Z,75450.34
2022-09-04T19:59:01.759Z,75462.56
2022-09-04T20:01:39.963Z,75466.63
2022-09-04T20:04:12.418Z,75474.78
2022-09-04T20:06:48.355Z,75468.69
2022-09-04T20:09:22.709Z,75462.56
2022-09-04T20:11:57.081Z,75462.56
2022-09-04T20:14:32.816Z,75464.59
2022-09-04T20:17:16.453Z,75464.59
2022-09-04T20:19:49.635Z,75462.56
2022-09-04T20:22:31.278Z,75470.72
2022-09-04T20:25:13.622Z,75478.88
2022-09-04T20:27:45.995Z,75478.88
2022-09-04T20:30:22.487Z,75491.09
2022-09-04T20:32:56.539Z,75491.09
2022-09-04T20:35:33.822Z,75499.25
2022-09-04T20:38:12.486Z,75499.25
2022-09-04T20:40:43.301Z,75507.41
2022-09-04T20:43:26.859Z,75513.53
2022-09-04T20:50:32.602Z,75517.59
2022-09-04T20:52:52.039Z,75523.72
2022-09-04T20:52:54.191Z,75517.59
2022-09-04T20:55:11.222Z,75533.91
2022-09-04T21:03:05.536Z,75535.94
2022-09-04T21:03:18.178Z,75544.09
2022-09-04T21:03:57.651Z,75544.09
2022-09-04T21:06:34.756Z,75552.25
2022-09-04T21:09:53.377Z,75562.44
2022-09-04T21:12:35.034Z,75568.56
2022-09-04T21:15:11.556Z,75566.53
2022-09-04T21:18:04.617Z,75572.63
2022-09-04T21:20:59.203Z,75582.84
2022-09-04T21:24:12.586Z,75582.84
2022-09-04T21:27:04.759Z,75580.78
2022-09-04T21:29:47.192Z,75591.00
2022-09-04T21:32:30.170Z,75584.88
2022-09-04T21:35:06.338Z,75597.09
2022-09-04T21:37:46.221Z,75607.28
2022-09-04T21:40:50.354Z,75617.50
2022-09-04T21:43:53.377Z,75621.56
2022-09-04T21:46:47.613Z,75629.72
2022-09-04T21:49:45.503Z,75633.78
2022-09-04T21:52:27.964Z,75648.06
2022-09-04T21:57:33.263Z,75658.25
2022-09-04T22:02:32.091Z,75662.34
2022-09-04T22:02:39.061Z,75662.34
2022-09-04T22:04:18.532Z,75666.41
2022-09-04T22:08:31.898Z,75666.41
2022-09-04T22:13:38.963Z,75666.41
2022-09-04T22:13:40.449Z,75664.38
2022-09-04T22:16:02.000Z,75670.50
2022-09-04T22:18:56.698Z,75676.59
2022-09-04T22:21:28.376Z,75678.63
2022-09-04T22:24:32.243Z,75690.88
2022-09-04T22:27:32.059Z,75686.78
2022-09-04T22:30:08.865Z,75694.94
2022-09-04T22:33:11.003Z,75690.88
2022-09-04T22:36:21.263Z,75692.91
2022-09-04T22:39:14.663Z,75688.84
2022-09-04T22:42:09.518Z,75688.84
2022-09-04T22:45:10.046Z,75703.09
2022-09-04T22:47:54.931Z,75723.50
2022-09-04T22:50:49.295Z,75733.69
2022-09-04T22:54:04.198Z,75731.66
2022-09-04T22:56:54.039Z,75733.69
2022-09-04T22:59:48.997Z,75731.66
2022-09-04T23:02:54.109Z,75739.81
2022-09-04T23:05:37.809Z,75731.66
2022-09-04T23:13:46.902Z,75735.72
2022-09-04T23:13:51.048Z,75743.88
2022-09-04T23:14:55.061Z,75745.91
2022-09-04T23:18:41.610Z,75747.94
2022-09-04T23:26:33.253Z,75741.84
2022-09-04T23:26:46.605Z,75743.88
2022-09-04T23:27:04.694Z,75739.81
2022-09-04T23:29:53.172Z,75747.94
2022-09-04T23:33:00.002Z,75764.25
2022-09-04T23:35:38.868Z,75768.34
2022-09-04T23:38:26.000Z,75778.53
2022-09-04T23:40:56.224Z,75776.50
2022-09-04T23:43:42.260Z,75776.50
2022-09-04T23:46:36.195Z,75786.69
2022-09-04T23:49:29.863Z,75792.81
2022-09-04T23:52:04.886Z,75800.97
2022-09-04T23:55:23.395Z,75800.97
2022-09-04T23:58:00.081Z,75800.97
